sensor_id;sensor_type;location;lat;lon;timestamp;P1;durP1;ratioP1;P2;durP2;ratioP2
77544;SDS011;66672;50.328;7.610;2023-06-01T00:01:23;5.97;;;2.60;;
77544;SDS011;66672;50.328;7.610;2023-06-01T00:03:48;6.22;;;2.20;;
77544;SDS011;66672;50.328;7.610;2023-06-01T00:06:13;6.20;;;2.40;;
77544;SDS011;66672;50.328;7.610;2023-06-01T00:08:38;5.13;;;2.03;;
77544;SDS011;66672;50.328;7.610;2023-06-01T00:11:04;4.53;;;2.20;;
77544;SDS011;66672;50.328;7.610;2023-06-01T00:13:29;3.83;;;2.03;;
77544;SDS011;66672;50.328;7.610;2023-06-01T00:15:54;7.30;;;2.30;;
77544;SDS011;66672;50.328;7.610;2023-06-01T00:18:19;5.57;;;2.42;;
77544;SDS011;66672;50.328;7.610;2023-06-01T00:20:45;6.50;;;2.23;;
77544;SDS011;66672;50.328;7.610;2023-06-01T00:23:10;5.30;;;2.20;;
77544;SDS011;66672;50.328;7.610;2023-06-01T00:25:35;8.02;;;2.60;;
77544;SDS011;66672;50.328;7.610;2023-06-01T00:28:00;4.03;;;1.85;;
77544;SDS011;66672;50.328;7.610;2023-06-01T00:30:27;6.45;;;2.50;;
77544;SDS011;66672;50.328;7.610;2023-06-01T00:32:52;5.68;;;2.25;;
77544;SDS011;66672;50.328;7.610;2023-06-01T00:35:17;5.32;;;2.17;;
77544;SDS011;66672;50.328;7.610;2023-06-01T00:37:42;3.97;;;1.92;;
77544;SDS011;66672;50.328;7.610;2023-06-01T00:40:08;5.80;;;2.25;;
77544;SDS011;66672;50.328;7.610;2023-06-01T00:42:33;6.07;;;1.95;;
77544;SDS011;66672;50.328;7.610;2023-06-01T00:44:58;4.63;;;2.10;;
77544;SDS011;66672;50.328;7.610;2023-06-01T00:47:23;5.05;;;2.45;;
77544;SDS011;66672;50.328;7.610;2023-06-01T00:49:49;4.13;;;2.35;;
77544;SDS011;66672;50.328;7.610;2023-06-01T00:52:14;6.55;;;2.17;;
77544;SDS011;66672;50.328;7.610;2023-06-01T00:54:40;6.15;;;2.28;;
77544;SDS011;66672;50.328;7.610;2023-06-01T00:57:05;6.50;;;2.70;;
77544;SDS011;66672;50.328;7.610;2023-06-01T00:59:31;5.57;;;2.17;;
77544;SDS011;66672;50.328;7.610;2023-06-01T01:01:57;5.85;;;1.95;;
77544;SDS011;66672;50.328;7.610;2023-06-01T01:04:22;5.95;;;2.55;;
77544;SDS011;66672;50.328;7.610;2023-06-01T01:07:09;5.88;;;2.42;;
77544;SDS011;66672;50.328;7.610;2023-06-01T01:09:48;5.75;;;2.63;;
77544;SDS011;66672;50.328;7.610;2023-06-01T01:12:18;6.50;;;2.50;;
77544;SDS011;66672;50.328;7.610;2023-06-01T01:14:53;5.53;;;2.55;;
77544;SDS011;66672;50.328;7.610;2023-06-01T01:17:42;7.22;;;2.60;;
77544;SDS011;66672;50.328;7.610;2023-06-01T01:25:20;8.68;;;2.50;;
77544;SDS011;66672;50.328;7.610;2023-06-01T01:28:00;8.13;;;2.90;;
77544;SDS011;66672;50.328;7.610;2023-06-01T01:30:31;6.90;;;2.50;;
77544;SDS011;66672;50.328;7.610;2023-06-01T01:32:58;6.75;;;2.80;;
77544;SDS011;66672;50.328;7.610;2023-06-01T01:35:24;7.32;;;2.55;;
77544;SDS011;66672;50.328;7.610;2023-06-01T01:37:51;5.70;;;2.60;;
77544;SDS011;66672;50.328;7.610;2023-06-01T01:40:17;6.93;;;2.30;;
77544;SDS011;66672;50.328;7.610;2023-06-01T01:42:42;7.15;;;2.42;;
77544;SDS011;66672;50.328;7.610;2023-06-01T01:45:07;7.93;;;2.55;;
77544;SDS011;66672;50.328;7.610;2023-06-01T01:47:36;5.07;;;2.25;;
77544;SDS011;66672;50.328;7.610;2023-06-01T01:50:05;5.88;;;2.42;;
77544;SDS011;66672;50.328;7.610;2023-06-01T01:52:34;6.72;;;2.67;;
77544;SDS011;66672;50.328;7.610;2023-06-01T01:55:00;6.50;;;2.55;;
77544;SDS011;66672;50.328;7.610;2023-06-01T01:57:26;6.90;;;2.80;;
77544;SDS011;66672;50.328;7.610;2023-06-01T01:59:52;5.25;;;2.47;;
77544;SDS011;66672;50.328;7.610;2023-06-01T02:02:17;6.93;;;2.90;;
77544;SDS011;66672;50.328;7.610;2023-06-01T02:04:43;5.82;;;2.50;;
77544;SDS011;66672;50.328;7.610;2023-06-01T02:07:09;6.35;;;2.58;;
77544;SDS011;66672;50.328;7.610;2023-06-01T02:09:34;4.45;;;2.40;;
77544;SDS011;66672;50.328;7.610;2023-06-01T02:12:00;8.55;;;2.70;;
77544;SDS011;66672;50.328;7.610;2023-06-01T02:14:25;6.95;;;2.40;;
77544;SDS011;66672;50.328;7.610;2023-06-01T02:16:50;5.47;;;3.05;;
77544;SDS011;66672;50.328;7.610;2023-06-01T02:19:15;7.07;;;2.63;;
77544;SDS011;66672;50.328;7.610;2023-06-01T02:21:41;6.82;;;2.50;;
77544;SDS011;66672;50.328;7.610;2023-06-01T02:24:07;5.95;;;2.10;;
77544;SDS011;66672;50.328;7.610;2023-06-01T02:26:33;5.50;;;2.30;;
77544;SDS011;66672;50.328;7.610;2023-06-01T02:28:59;7.35;;;2.33;;
77544;SDS011;66672;50.328;7.610;2023-06-01T02:31:24;6.32;;;2.38;;
77544;SDS011;66672;50.328;7.610;2023-06-01T02:33:50;6.25;;;2.70;;
77544;SDS011;66672;50.328;7.610;2023-06-01T02:36:15;5.82;;;2.30;;
77544;SDS011;66672;50.328;7.610;2023-06-01T02:38:41;6.75;;;2.80;;
77544;SDS011;66672;50.328;7.610;2023-06-01T02:41:06;6.22;;;2.72;;
77544;SDS011;66672;50.328;7.610;2023-06-01T02:43:33;8.45;;;2.63;;
77544;SDS011;66672;50.328;7.610;2023-06-01T02:45:58;7.53;;;2.88;;
77544;SDS011;66672;50.328;7.610;2023-06-01T02:48:23;6.43;;;2.85;;
77544;SDS011;66672;50.328;7.610;2023-06-01T02:50:49;5.60;;;2.60;;
77544;SDS011;66672;50.328;7.610;2023-06-01T02:53:14;7.13;;;3.03;;
77544;SDS011;66672;50.328;7.610;2023-06-01T02:55:39;6.57;;;3.13;;
77544;SDS011;66672;50.328;7.610;2023-06-01T02:58:04;8.20;;;2.50;;
77544;SDS011;66672;50.328;7.610;2023-06-01T03:00:29;7.90;;;2.90;;
77544;SDS011;66672;50.328;7.610;2023-06-01T03:02:55;6.38;;;2.78;;
77544;SDS011;66672;50.328;7.610;2023-06-01T03:05:20;6.80;;;2.80;;
77544;SDS011;66672;50.328;7.610;2023-06-01T03:07:46;9.75;;;3.22;;
77544;SDS011;66672;50.328;7.610;2023-06-01T03:10:11;7.55;;;2.75;;
77544;SDS011;66672;50.328;7.610;2023-06-01T03:12:37;6.05;;;2.95;;
77544;SDS011;66672;50.328;7.610;2023-06-01T03:15:03;8.27;;;2.67;;
77544;SDS011;66672;50.328;7.610;2023-06-01T03:17:29;6.97;;;2.65;;
77544;SDS011;66672;50.328;7.610;2023-06-01T03:19:54;6.38;;;2.70;;
77544;SDS011;66672;50.328;7.610;2023-06-01T03:22:20;4.78;;;2.47;;
77544;SDS011;66672;50.328;7.610;2023-06-01T03:24:45;6.32;;;2.88;;
77544;SDS011;66672;50.328;7.610;2023-06-01T03:27:14;7.88;;;3.22;;
77544;SDS011;66672;50.328;7.610;2023-06-01T03:29:39;6.30;;;3.00;;
77544;SDS011;66672;50.328;7.610;2023-06-01T03:32:04;7.70;;;3.50;;
77544;SDS011;66672;50.328;7.610;2023-06-01T03:34:30;6.55;;;3.17;;
77544;SDS011;66672;50.328;7.610;2023-06-01T03:36:57;6.85;;;3.05;;
77544;SDS011;66672;50.328;7.610;2023-06-01T03:39:22;8.05;;;3.20;;
77544;SDS011;66672;50.328;7.610;2023-06-01T03:41:48;5.68;;;2.88;;
77544;SDS011;66672;50.328;7.610;2023-06-01T03:44:13;5.85;;;2.80;;
77544;SDS011;66672;50.328;7.610;2023-06-01T03:46:39;7.53;;;3.30;;
77544;SDS011;66672;50.328;7.610;2023-06-01T03:49:04;7.32;;;3.33;;
77544;SDS011;66672;50.328;7.610;2023-06-01T03:51:29;7.55;;;3.13;;
77544;SDS011;66672;50.328;7.610;2023-06-01T03:53:55;5.93;;;2.90;;
77544;SDS011;66672;50.328;7.610;2023-06-01T03:56:20;7.40;;;3.03;;
77544;SDS011;66672;50.328;7.610;2023-06-01T03:58:45;9.00;;;4.18;;
77544;SDS011;66672;50.328;7.610;2023-06-01T04:01:11;11.95;;;3.70;;
77544;SDS011;66672;50.328;7.610;2023-06-01T04:03:36;6.88;;;3.38;;
77544;SDS011;66672;50.328;7.610;2023-06-01T04:06:02;6.15;;;3.08;;
77544;SDS011;66672;50.328;7.610;2023-06-01T04:08:28;7.13;;;3.47;;
77544;SDS011;66672;50.328;7.610;2023-06-01T04:10:54;8.10;;;3.13;;
77544;SDS011;66672;50.328;7.610;2023-06-01T04:13:19;8.75;;;4.00;;
77544;SDS011;66672;50.328;7.610;2023-06-01T04:15:45;8.13;;;3.40;;
77544;SDS011;66672;50.328;7.610;2023-06-01T04:18:10;8.57;;;3.20;;
77544;SDS011;66672;50.328;7.610;2023-06-01T04:20:36;8.38;;;4.03;;
77544;SDS011;66672;50.328;7.610;2023-06-01T04:23:01;9.35;;;3.60;;
77544;SDS011;66672;50.328;7.610;2023-06-01T04:25:26;7.25;;;3.20;;
77544;SDS011;66672;50.328;7.610;2023-06-01T04:27:53;7.05;;;3.22;;
77544;SDS011;66672;50.328;7.610;2023-06-01T04:30:19;8.95;;;3.42;;
77544;SDS011;66672;50.328;7.610;2023-06-01T04:32:46;7.82;;;3.08;;
77544;SDS011;66672;50.328;7.610;2023-06-01T04:35:13;6.30;;;2.97;;
77544;SDS011;66672;50.328;7.610;2023-06-01T04:37:39;6.38;;;3.33;;
77544;SDS011;66672;50.328;7.610;2023-06-01T04:40:05;9.60;;;3.38;;
77544;SDS011;66672;50.328;7.610;2023-06-01T04:42:36;10.48;;;4.28;;
77544;SDS011;66672;50.328;7.610;2023-06-01T04:45:04;6.65;;;3.22;;
77544;SDS011;66672;50.328;7.610;2023-06-01T04:47:31;7.85;;;3.20;;
77544;SDS011;66672;50.328;7.610;2023-06-01T04:49:57;7.68;;;3.10;;
77544;SDS011;66672;50.328;7.610;2023-06-01T04:52:22;6.38;;;2.92;;
77544;SDS011;66672;50.328;7.610;2023-06-01T04:54:48;6.25;;;3.35;;
77544;SDS011;66672;50.328;7.610;2023-06-01T04:57:13;11.02;;;3.50;;
77544;SDS011;66672;50.328;7.610;2023-06-01T04:59:40;5.40;;;3.13;;
77544;SDS011;66672;50.328;7.610;2023-06-01T05:02:05;9.55;;;3.10;;
77544;SDS011;66672;50.328;7.610;2023-06-01T05:04:30;7.63;;;3.60;;
77544;SDS011;66672;50.328;7.610;2023-06-01T05:06:55;6.90;;;3.30;;
77544;SDS011;66672;50.328;7.610;2023-06-01T05:09:20;6.38;;;3.10;;
77544;SDS011;66672;50.328;7.610;2023-06-01T05:11:46;6.50;;;3.30;;
77544;SDS011;66672;50.328;7.610;2023-06-01T05:14:11;6.25;;;3.20;;
77544;SDS011;66672;50.328;7.610;2023-06-01T05:16:36;8.15;;;3.30;;
77544;SDS011;66672;50.328;7.610;2023-06-01T05:19:01;7.25;;;3.28;;
77544;SDS011;66672;50.328;7.610;2023-06-01T05:21:27;7.00;;;3.28;;
77544;SDS011;66672;50.328;7.610;2023-06-01T05:23:52;7.90;;;3.13;;
77544;SDS011;66672;50.328;7.610;2023-06-01T05:26:18;6.78;;;3.33;;
77544;SDS011;66672;50.328;7.610;2023-06-01T05:28:43;9.75;;;3.33;;
77544;SDS011;66672;50.328;7.610;2023-06-01T05:31:08;8.60;;;3.65;;
77544;SDS011;66672;50.328;7.610;2023-06-01T05:33:33;7.05;;;3.83;;
77544;SDS011;66672;50.328;7.610;2023-06-01T05:35:58;9.85;;;3.90;;
77544;SDS011;66672;50.328;7.610;2023-06-01T05:38:23;8.55;;;3.35;;
77544;SDS011;66672;50.328;7.610;2023-06-01T05:40:49;8.52;;;3.75;;
77544;SDS011;66672;50.328;7.610;2023-06-01T05:43:14;10.80;;;4.43;;
77544;SDS011;66672;50.328;7.610;2023-06-01T05:45:40;6.40;;;3.97;;
77544;SDS011;66672;50.328;7.610;2023-06-01T05:48:05;7.03;;;4.00;;
77544;SDS011;66672;50.328;7.610;2023-06-01T05:50:30;8.55;;;3.45;;
77544;SDS011;66672;50.328;7.610;2023-06-01T05:52:55;8.00;;;4.20;;
77544;SDS011;66672;50.328;7.610;2023-06-01T05:55:21;11.05;;;4.32;;
77544;SDS011;66672;50.328;7.610;2023-06-01T05:57:46;7.95;;;3.83;;
77544;SDS011;66672;50.328;7.610;2023-06-01T06:00:11;6.97;;;3.80;;
77544;SDS011;66672;50.328;7.610;2023-06-01T06:02:38;7.40;;;3.35;;
77544;SDS011;66672;50.328;7.610;2023-06-01T06:05:04;8.32;;;3.88;;
77544;SDS011;66672;50.328;7.610;2023-06-01T06:07:29;7.63;;;3.90;;
77544;SDS011;66672;50.328;7.610;2023-06-01T06:09:54;7.75;;;3.97;;
77544;SDS011;66672;50.328;7.610;2023-06-01T06:12:20;8.38;;;4.03;;
77544;SDS011;66672;50.328;7.610;2023-06-01T06:14:45;9.15;;;3.78;;
77544;SDS011;66672;50.328;7.610;2023-06-01T06:17:10;8.38;;;3.72;;
77544;SDS011;66672;50.328;7.610;2023-06-01T06:19:36;9.02;;;3.95;;
77544;SDS011;66672;50.328;7.610;2023-06-01T06:22:01;8.25;;;3.70;;
77544;SDS011;66672;50.328;7.610;2023-06-01T06:24:26;7.65;;;3.90;;
77544;SDS011;66672;50.328;7.610;2023-06-01T06:26:51;9.45;;;4.30;;
77544;SDS011;66672;50.328;7.610;2023-06-01T06:29:17;10.90;;;4.60;;
77544;SDS011;66672;50.328;7.610;2023-06-01T06:31:42;7.22;;;4.40;;
77544;SDS011;66672;50.328;7.610;2023-06-01T06:34:08;8.18;;;3.78;;
77544;SDS011;66672;50.328;7.610;2023-06-01T06:36:33;10.77;;;3.92;;
77544;SDS011;66672;50.328;7.610;2023-06-01T06:38:58;6.88;;;4.43;;
77544;SDS011;66672;50.328;7.610;2023-06-01T06:41:24;10.27;;;4.10;;
77544;SDS011;66672;50.328;7.610;2023-06-01T06:43:49;8.45;;;4.10;;
77544;SDS011;66672;50.328;7.610;2023-06-01T06:46:15;11.68;;;3.72;;
77544;SDS011;66672;50.328;7.610;2023-06-01T06:48:40;8.00;;;4.03;;
77544;SDS011;66672;50.328;7.610;2023-06-01T06:51:05;12.40;;;4.30;;
77544;SDS011;66672;50.328;7.610;2023-06-01T06:53:30;9.43;;;4.10;;
77544;SDS011;66672;50.328;7.610;2023-06-01T06:55:56;9.88;;;4.55;;
77544;SDS011;66672;50.328;7.610;2023-06-01T06:58:21;8.57;;;3.65;;
77544;SDS011;66672;50.328;7.610;2023-06-01T07:00:46;10.70;;;3.92;;
77544;SDS011;66672;50.328;7.610;2023-06-01T07:03:11;10.95;;;3.80;;
77544;SDS011;66672;50.328;7.610;2023-06-01T07:05:37;10.55;;;3.95;;
77544;SDS011;66672;50.328;7.610;2023-06-01T07:08:02;10.80;;;4.18;;
77544;SDS011;66672;50.328;7.610;2023-06-01T07:10:27;10.60;;;4.20;;
77544;SDS011;66672;50.328;7.610;2023-06-01T07:12:52;8.38;;;3.65;;
77544;SDS011;66672;50.328;7.610;2023-06-01T07:15:17;8.20;;;3.92;;
77544;SDS011;66672;50.328;7.610;2023-06-01T07:17:43;10.25;;;4.20;;
77544;SDS011;66672;50.328;7.610;2023-06-01T07:20:08;8.13;;;4.32;;
77544;SDS011;66672;50.328;7.610;2023-06-01T07:22:37;8.30;;;4.18;;
77544;SDS011;66672;50.328;7.610;2023-06-01T07:25:02;11.48;;;4.47;;
77544;SDS011;66672;50.328;7.610;2023-06-01T07:27:27;7.95;;;3.70;;
77544;SDS011;66672;50.328;7.610;2023-06-01T07:29:53;9.77;;;4.63;;
77544;SDS011;66672;50.328;7.610;2023-06-01T07:32:24;10.45;;;3.90;;
77544;SDS011;66672;50.328;7.610;2023-06-01T07:34:50;11.68;;;4.05;;
77544;SDS011;66672;50.328;7.610;2023-06-01T07:37:15;8.73;;;3.85;;
77544;SDS011;66672;50.328;7.610;2023-06-01T07:39:40;11.77;;;4.25;;
77544;SDS011;66672;50.328;7.610;2023-06-01T07:42:06;7.28;;;3.80;;
77544;SDS011;66672;50.328;7.610;2023-06-01T07:44:31;14.60;;;4.47;;
77544;SDS011;66672;50.328;7.610;2023-06-01T07:46:56;8.60;;;3.55;;
77544;SDS011;66672;50.328;7.610;2023-06-01T07:49:21;11.50;;;4.63;;
77544;SDS011;66672;50.328;7.610;2023-06-01T07:51:47;8.52;;;4.00;;
77544;SDS011;66672;50.328;7.610;2023-06-01T07:54:12;12.88;;;4.28;;
77544;SDS011;66672;50.328;7.610;2023-06-01T07:56:37;10.57;;;3.90;;
77544;SDS011;66672;50.328;7.610;2023-06-01T07:59:02;10.75;;;4.32;;
77544;SDS011;66672;50.328;7.610;2023-06-01T08:01:28;11.93;;;4.15;;
77544;SDS011;66672;50.328;7.610;2023-06-01T08:03:53;11.90;;;4.03;;
77544;SDS011;66672;50.328;7.610;2023-06-01T08:06:20;9.90;;;4.28;;
77544;SDS011;66672;50.328;7.610;2023-06-01T08:08:47;13.45;;;4.20;;
77544;SDS011;66672;50.328;7.610;2023-06-01T08:11:14;8.63;;;4.38;;
77544;SDS011;66672;50.328;7.610;2023-06-01T08:13:39;8.13;;;3.88;;
77544;SDS011;66672;50.328;7.610;2023-06-01T08:16:06;10.88;;;3.97;;
77544;SDS011;66672;50.328;7.610;2023-06-01T08:18:31;8.35;;;4.03;;
77544;SDS011;66672;50.328;7.610;2023-06-01T08:20:57;9.82;;;4.20;;
77544;SDS011;66672;50.328;7.610;2023-06-01T08:23:22;7.93;;;4.00;;
77544;SDS011;66672;50.328;7.610;2023-06-01T08:25:47;8.80;;;4.03;;
77544;SDS011;66672;50.328;7.610;2023-06-01T08:28:13;7.57;;;3.95;;
77544;SDS011;66672;50.328;7.610;2023-06-01T08:30:38;11.90;;;3.97;;
77544;SDS011;66672;50.328;7.610;2023-06-01T08:33:04;7.38;;;3.55;;
77544;SDS011;66672;50.328;7.610;2023-06-01T08:35:29;7.50;;;3.42;;
77544;SDS011;66672;50.328;7.610;2023-06-01T08:37:58;6.05;;;3.50;;
77544;SDS011;66672;50.328;7.610;2023-06-01T08:40:23;11.30;;;3.60;;
77544;SDS011;66672;50.328;7.610;2023-06-01T08:42:53;8.10;;;4.03;;
77544;SDS011;66672;50.328;7.610;2023-06-01T08:47:47;9.80;;;4.80;;
77544;SDS011;66672;50.328;7.610;2023-06-01T08:50:14;7.80;;;3.97;;
77544;SDS011;66672;50.328;7.610;2023-06-01T08:52:41;9.52;;;4.60;;
77544;SDS011;66672;50.328;7.610;2023-06-01T08:55:06;12.57;;;4.57;;
77544;SDS011;66672;50.328;7.610;2023-06-01T08:57:31;10.32;;;4.35;;
77544;SDS011;66672;50.328;7.610;2023-06-01T08:59:57;8.35;;;3.47;;
77544;SDS011;66672;50.328;7.610;2023-06-01T09:02:23;8.18;;;4.03;;
77544;SDS011;66672;50.328;7.610;2023-06-01T09:04:49;7.75;;;3.40;;
77544;SDS011;66672;50.328;7.610;2023-06-01T09:07:14;8.00;;;3.53;;
77544;SDS011;66672;50.328;7.610;2023-06-01T09:09:39;8.60;;;3.60;;
77544;SDS011;66672;50.328;7.610;2023-06-01T09:12:18;6.45;;;3.63;;
77544;SDS011;66672;50.328;7.610;2023-06-01T09:14:43;8.48;;;3.40;;
77544;SDS011;66672;50.328;7.610;2023-06-01T09:17:12;9.60;;;3.50;;
77544;SDS011;66672;50.328;7.610;2023-06-01T09:19:44;9.98;;;3.67;;
77544;SDS011;66672;50.328;7.610;2023-06-01T09:22:10;7.30;;;3.75;;
77544;SDS011;66672;50.328;7.610;2023-06-01T09:24:35;7.35;;;3.58;;
77544;SDS011;66672;50.328;7.610;2023-06-01T09:27:00;10.57;;;3.97;;
77544;SDS011;66672;50.328;7.610;2023-06-01T09:29:26;6.97;;;3.60;;
77544;SDS011;66672;50.328;7.610;2023-06-01T09:31:51;7.85;;;3.53;;
77544;SDS011;66672;50.328;7.610;2023-06-01T09:34:17;10.90;;;4.03;;
77544;SDS011;66672;50.328;7.610;2023-06-01T09:36:46;8.48;;;3.30;;
77544;SDS011;66672;50.328;7.610;2023-06-01T09:39:12;7.95;;;3.55;;
77544;SDS011;66672;50.328;7.610;2023-06-01T09:46:51;8.85;;;4.00;;
77544;SDS011;66672;50.328;7.610;2023-06-01T09:49:27;6.00;;;3.00;;
77544;SDS011;66672;50.328;7.610;2023-06-01T09:52:15;12.10;;;4.10;;
77544;SDS011;66672;50.328;7.610;2023-06-01T09:54:41;6.93;;;3.38;;
77544;SDS011;66672;50.328;7.610;2023-06-01T09:57:06;7.80;;;3.20;;
77544;SDS011;66672;50.328;7.610;2023-06-01T09:59:41;9.98;;;3.65;;
77544;SDS011;66672;50.328;7.610;2023-06-01T10:02:08;11.40;;;3.58;;
77544;SDS011;66672;50.328;7.610;2023-06-01T10:04:37;9.57;;;4.22;;
77544;SDS011;66672;50.328;7.610;2023-06-01T10:07:03;7.15;;;3.70;;
77544;SDS011;66672;50.328;7.610;2023-06-01T10:09:30;7.68;;;3.13;;
77544;SDS011;66672;50.328;7.610;2023-06-01T10:11:56;11.73;;;4.38;;
77544;SDS011;66672;50.328;7.610;2023-06-01T10:14:22;7.65;;;3.75;;
77544;SDS011;66672;50.328;7.610;2023-06-01T10:16:48;6.97;;;3.20;;
77544;SDS011;66672;50.328;7.610;2023-06-01T10:19:14;7.97;;;4.00;;
77544;SDS011;66672;50.328;7.610;2023-06-01T10:21:39;12.15;;;4.03;;
77544;SDS011;66672;50.328;7.610;2023-06-01T10:24:05;10.40;;;3.72;;
77544;SDS011;66672;50.328;7.610;2023-06-01T10:26:33;5.72;;;3.10;;
77544;SDS011;66672;50.328;7.610;2023-06-01T10:28:59;10.35;;;3.53;;
77544;SDS011;66672;50.328;7.610;2023-06-01T10:31:32;6.35;;;3.42;;
77544;SDS011;66672;50.328;7.610;2023-06-01T10:33:57;6.63;;;3.33;;
77544;SDS011;66672;50.328;7.610;2023-06-01T10:36:23;7.35;;;3.75;;
77544;SDS011;66672;50.328;7.610;2023-06-01T10:38:48;7.57;;;3.78;;
77544;SDS011;66672;50.328;7.610;2023-06-01T10:41:26;12.57;;;4.22;;
77544;SDS011;66672;50.328;7.610;2023-06-01T10:43:52;10.60;;;3.28;;
77544;SDS011;66672;50.328;7.610;2023-06-01T10:48:56;12.27;;;3.72;;
77544;SDS011;66672;50.328;7.610;2023-06-01T10:51:22;7.45;;;3.20;;
77544;SDS011;66672;50.328;7.610;2023-06-01T10:53:48;7.28;;;3.25;;
77544;SDS011;66672;50.328;7.610;2023-06-01T10:56:17;8.10;;;3.65;;
77544;SDS011;66672;50.328;7.610;2023-06-01T10:58:43;10.43;;;3.95;;
77544;SDS011;66672;50.328;7.610;2023-06-01T11:01:08;9.00;;;3.50;;
77544;SDS011;66672;50.328;7.610;2023-06-01T11:03:44;10.02;;;4.57;;
77544;SDS011;66672;50.328;7.610;2023-06-01T11:06:23;12.00;;;4.18;;
77544;SDS011;66672;50.328;7.610;2023-06-01T11:08:49;14.70;;;6.05;;
77544;SDS011;66672;50.328;7.610;2023-06-01T11:11:15;11.23;;;5.63;;
77544;SDS011;66672;50.328;7.610;2023-06-01T11:13:41;13.52;;;6.10;;
77544;SDS011;66672;50.328;7.610;2023-06-01T11:21:25;15.30;;;6.88;;
77544;SDS011;66672;50.328;7.610;2023-06-01T11:23:51;14.40;;;6.40;;
77544;SDS011;66672;50.328;7.610;2023-06-01T11:26:17;12.70;;;6.43;;
77544;SDS011;66672;50.328;7.610;2023-06-01T11:28:43;11.32;;;6.07;;
77544;SDS011;66672;50.328;7.610;2023-06-01T11:31:09;16.65;;;7.60;;
77544;SDS011;66672;50.328;7.610;2023-06-01T11:33:35;14.52;;;7.80;;
77544;SDS011;66672;50.328;7.610;2023-06-01T11:36:02;14.75;;;7.57;;
77544;SDS011;66672;50.328;7.610;2023-06-01T11:38:33;16.90;;;9.15;;
77544;SDS011;66672;50.328;7.610;2023-06-01T11:40:59;18.13;;;8.65;;
77544;SDS011;66672;50.328;7.610;2023-06-01T11:43:31;18.17;;;9.07;;
77544;SDS011;66672;50.328;7.610;2023-06-01T11:46:00;15.10;;;8.00;;
77544;SDS011;66672;50.328;7.610;2023-06-01T11:48:26;13.98;;;7.88;;
77544;SDS011;66672;50.328;7.610;2023-06-01T11:50:51;15.00;;;8.45;;
77544;SDS011;66672;50.328;7.610;2023-06-01T11:53:16;15.13;;;9.00;;
77544;SDS011;66672;50.328;7.610;2023-06-01T11:55:51;11.70;;;7.85;;
77544;SDS011;66672;50.328;7.610;2023-06-01T12:01:08;19.27;;;10.20;;
77544;SDS011;66672;50.328;7.610;2023-06-01T12:03:34;15.20;;;9.55;;
77544;SDS011;66672;50.328;7.610;2023-06-01T12:06:18;18.10;;;9.55;;
77544;SDS011;66672;50.328;7.610;2023-06-01T12:08:43;17.23;;;9.60;;
77544;SDS011;66672;50.328;7.610;2023-06-01T12:11:08;16.58;;;10.45;;
77544;SDS011;66672;50.328;7.610;2023-06-01T12:13:33;17.33;;;9.32;;
77544;SDS011;66672;50.328;7.610;2023-06-01T12:15:59;19.95;;;9.80;;
77544;SDS011;66672;50.328;7.610;2023-06-01T12:18:28;16.85;;;9.73;;
77544;SDS011;66672;50.328;7.610;2023-06-01T12:20:55;18.40;;;9.95;;
77544;SDS011;66672;50.328;7.610;2023-06-01T12:23:20;16.45;;;9.05;;
77544;SDS011;66672;50.328;7.610;2023-06-01T12:25:49;17.98;;;9.80;;
77544;SDS011;66672;50.328;7.610;2023-06-01T12:28:17;15.35;;;9.07;;
77544;SDS011;66672;50.328;7.610;2023-06-01T12:30:43;18.58;;;10.10;;
77544;SDS011;66672;50.328;7.610;2023-06-01T12:33:08;17.65;;;9.38;;
77544;SDS011;66672;50.328;7.610;2023-06-01T12:35:46;14.60;;;8.63;;
77544;SDS011;66672;50.328;7.610;2023-06-01T12:38:11;16.58;;;9.45;;
77544;SDS011;66672;50.328;7.610;2023-06-01T12:40:37;14.48;;;8.65;;
77544;SDS011;66672;50.328;7.610;2023-06-01T12:43:03;15.10;;;8.95;;
77544;SDS011;66672;50.328;7.610;2023-06-01T12:45:36;14.38;;;9.23;;
77544;SDS011;66672;50.328;7.610;2023-06-01T12:48:02;14.17;;;8.43;;
77544;SDS011;66672;50.328;7.610;2023-06-01T12:50:28;14.45;;;7.88;;
77544;SDS011;66672;50.328;7.610;2023-06-01T12:52:53;14.02;;;8.52;;
77544;SDS011;66672;50.328;7.610;2023-06-01T12:55:18;14.38;;;7.32;;
77544;SDS011;66672;50.328;7.610;2023-06-01T12:57:51;13.45;;;7.95;;
77544;SDS011;66672;50.328;7.610;2023-06-01T13:00:16;13.57;;;7.85;;
77544;SDS011;66672;50.328;7.610;2023-06-01T13:02:42;10.20;;;6.40;;
77544;SDS011;66672;50.328;7.610;2023-06-01T13:05:07;12.73;;;6.95;;
77544;SDS011;66672;50.328;7.610;2023-06-01T13:07:33;12.77;;;6.50;;
77544;SDS011;66672;50.328;7.610;2023-06-01T13:09:58;10.18;;;5.97;;
77544;SDS011;66672;50.328;7.610;2023-06-01T13:12:24;11.05;;;6.32;;
77544;SDS011;66672;50.328;7.610;2023-06-01T13:14:49;13.35;;;6.90;;
77544;SDS011;66672;50.328;7.610;2023-06-01T13:17:14;11.90;;;6.47;;
77544;SDS011;66672;50.328;7.610;2023-06-01T13:19:39;11.52;;;6.38;;
77544;SDS011;66672;50.328;7.610;2023-06-01T13:22:05;13.50;;;5.82;;
77544;SDS011;66672;50.328;7.610;2023-06-01T13:24:31;13.98;;;6.22;;
77544;SDS011;66672;50.328;7.610;2023-06-01T13:26:56;14.90;;;7.18;;
77544;SDS011;66672;50.328;7.610;2023-06-01T13:29:21;11.02;;;6.03;;
77544;SDS011;66672;50.328;7.610;2023-06-01T13:31:47;11.40;;;6.18;;
77544;SDS011;66672;50.328;7.610;2023-06-01T13:34:12;9.95;;;6.57;;
77544;SDS011;66672;50.328;7.610;2023-06-01T13:36:37;10.57;;;5.70;;
77544;SDS011;66672;50.328;7.610;2023-06-01T13:39:03;13.90;;;6.57;;
77544;SDS011;66672;50.328;7.610;2023-06-01T13:41:29;11.35;;;6.40;;
77544;SDS011;66672;50.328;7.610;2023-06-01T13:43:54;10.60;;;6.32;;
77544;SDS011;66672;50.328;7.610;2023-06-01T13:46:19;9.70;;;5.68;;
77544;SDS011;66672;50.328;7.610;2023-06-01T13:48:45;13.75;;;6.13;;
77544;SDS011;66672;50.328;7.610;2023-06-01T13:51:10;9.70;;;6.00;;
77544;SDS011;66672;50.328;7.610;2023-06-01T13:53:35;12.73;;;6.07;;
77544;SDS011;66672;50.328;7.610;2023-06-01T13:56:00;13.52;;;6.45;;
77544;SDS011;66672;50.328;7.610;2023-06-01T13:58:26;11.23;;;6.03;;
77544;SDS011;66672;50.328;7.610;2023-06-01T14:00:51;9.52;;;6.43;;
77544;SDS011;66672;50.328;7.610;2023-06-01T14:03:16;12.07;;;6.43;;
77544;SDS011;66672;50.328;7.610;2023-06-01T14:05:42;10.77;;;6.15;;
77544;SDS011;66672;50.328;7.610;2023-06-01T14:08:07;10.45;;;6.47;;
77544;SDS011;66672;50.328;7.610;2023-06-01T14:10:33;12.85;;;6.30;;
77544;SDS011;66672;50.328;7.610;2023-06-01T14:12:59;10.68;;;6.57;;
77544;SDS011;66672;50.328;7.610;2023-06-01T14:15:24;15.80;;;6.90;;
77544;SDS011;66672;50.328;7.610;2023-06-01T14:17:50;12.15;;;7.88;;
77544;SDS011;66672;50.328;7.610;2023-06-01T14:20:15;15.70;;;8.53;;
77544;SDS011;66672;50.328;7.610;2023-06-01T14:22:41;11.02;;;6.78;;
77544;SDS011;66672;50.328;7.610;2023-06-01T14:25:06;11.70;;;7.35;;
77544;SDS011;66672;50.328;7.610;2023-06-01T14:27:32;11.52;;;6.90;;
77544;SDS011;66672;50.328;7.610;2023-06-01T14:29:57;13.18;;;6.75;;
77544;SDS011;66672;50.328;7.610;2023-06-01T14:32:22;12.02;;;6.30;;
77544;SDS011;66672;50.328;7.610;2023-06-01T14:34:48;11.82;;;6.65;;
77544;SDS011;66672;50.328;7.610;2023-06-01T14:37:13;12.17;;;6.73;;
77544;SDS011;66672;50.328;7.610;2023-06-01T14:39:39;10.32;;;5.78;;
77544;SDS011;66672;50.328;7.610;2023-06-01T14:42:05;13.35;;;6.40;;
77544;SDS011;66672;50.328;7.610;2023-06-01T14:44:30;11.40;;;6.55;;
77544;SDS011;66672;50.328;7.610;2023-06-01T14:46:55;11.70;;;6.18;;
77544;SDS011;66672;50.328;7.610;2023-06-01T14:49:20;8.68;;;5.68;;
77544;SDS011;66672;50.328;7.610;2023-06-01T14:51:45;12.05;;;6.40;;
77544;SDS011;66672;50.328;7.610;2023-06-01T14:54:11;11.93;;;6.95;;
77544;SDS011;66672;50.328;7.610;2023-06-01T14:56:36;10.07;;;5.57;;
77544;SDS011;66672;50.328;7.610;2023-06-01T14:59:01;8.20;;;5.53;;
77544;SDS011;66672;50.328;7.610;2023-06-01T15:01:27;11.25;;;5.57;;